createdAt,value
2018-06-05T06:36:45.945Z,89.17
2018-06-05T06:37:48.055Z,89.07
2018-06-05T06:38:50.242Z,89.26
2018-06-05T06:39:52.499Z,89.55
2018-06-05T06:40:53.676Z,89.75
2018-06-05T06:41:55.064Z,89.55
2018-06-05T06:42:56.463Z,89.84
2018-06-05T06:43:57.841Z,90.13
2018-06-05T06:45:00.500Z,89.79
2018-06-05T06:46:01.051Z,89.65
2018-06-05T06:47:03.146Z,90.22
2018-06-05T06:48:04.532Z,90.13
2018-06-05T06:49:05.968Z,89.46
2018-06-05T06:50:07.319Z,89.40
2018-06-05T06:51:08.730Z,89.31
2018-06-05T06:52:10.920Z,89.26
2018-06-05T06:53:12.325Z,89.12
2018-06-05T06:54:13.746Z,89.02
2018-06-05T06:55:15.104Z,88.64
2018-06-05T06:56:16.496Z,88.83
2018-06-05T06:57:17.896Z,89.40
2018-06-05T06:58:19.280Z,89.12
2018-06-05T06:59:20.672Z,89.12
2018-06-05T07:00:22.067Z,89.22
2018-06-05T07:01:23.459Z,89.50
2018-06-05T07:02:24.853Z,89.02
2018-06-05T07:03:26.947Z,88.25
2018-06-05T07:04:29.596Z,88.35
2018-06-05T07:05:30.999Z,88.16
2018-06-05T07:06:33.212Z,87.87
2018-06-05T07:07:34.621Z,87.92
2018-06-05T07:08:36.017Z,87.96
2018-06-05T07:09:38.371Z,88.01
2018-06-05T07:10:39.773Z,87.53
2018-06-05T07:11:41.205Z,87.34
2018-06-05T07:12:42.579Z,87.43
2018-06-05T07:13:43.975Z,87.34
2018-06-05T07:14:45.375Z,87.43
2018-06-05T07:15:47.402Z,87.05
2018-06-05T07:16:49.510Z,87.24
2018-06-05T07:17:50.152Z,86.95
2018-06-05T07:18:52.438Z,87.62
2018-06-05T07:19:53.829Z,86.85
2018-06-05T07:20:55.219Z,87.15
2018-06-05T07:21:56.610Z,86.95
2018-06-05T07:22:58.984Z,86.95
2018-06-05T07:24:00.384Z,86.95
2018-06-05T07:25:01.789Z,86.85
2018-06-05T07:26:03.721Z,86.76
2018-06-05T07:27:05.077Z,86.85
2018-06-05T07:28:06.474Z,87.05
2018-06-05T07:29:07.863Z,87.34
2018-06-05T07:30:09.303Z,87.24
2018-06-05T07:31:10.657Z,86.95
2018-06-05T07:32:12.581Z,87.43
2018-06-05T07:33:13.981Z,87.24
2018-06-05T07:34:15.375Z,87.43
2018-06-05T07:35:17.446Z,87.62
2018-06-05T07:36:19.459Z,87.34
2018-06-05T07:37:20.855Z,87.24
2018-06-05T07:38:22.239Z,87.92
2018-06-05T07:39:23.628Z,86.76
2018-06-05T07:40:25.022Z,86.85
2018-06-05T07:41:27.197Z,86.66
2018-06-05T07:42:28.587Z,87.24
2018-06-05T07:43:30.521Z,86.95
2018-06-05T07:44:31.954Z,86.85
2018-06-05T07:45:33.360Z,86.52
2018-06-05T07:46:35.665Z,85.94
2018-06-05T07:47:38.827Z,86.04
2018-06-05T07:48:40.210Z,86.04
2018-06-05T07:49:42.217Z,85.84
2018-06-05T07:50:43.612Z,85.84
2018-06-05T07:51:45.006Z,85.84
2018-06-05T07:52:46.405Z,85.75
2018-06-05T07:53:47.793Z,85.94
2018-06-05T07:54:49.180Z,85.75
2018-06-05T07:55:50.579Z,85.75
2018-06-05T07:56:52.959Z,85.94
2018-06-05T07:57:54.356Z,85.36
2018-06-05T07:58:56.471Z,84.98
2018-06-05T07:59:57.893Z,85.36
2018-06-05T08:00:59.287Z,85.94
2018-06-05T08:02:00.685Z,85.55
2018-06-05T08:03:02.080Z,85.46
2018-06-05T08:04:04.123Z,85.46
2018-06-05T08:05:06.020Z,85.27
2018-06-05T08:06:07.403Z,85.17
2018-06-05T08:07:09.453Z,84.88
2018-06-05T08:08:11.639Z,85.07
2018-06-05T08:09:13.896Z,84.78
2018-06-05T08:10:15.282Z,85.07
2018-06-05T08:11:17.242Z,84.78
2018-06-05T08:12:19.378Z,84.59
2018-06-05T08:13:21.709Z,84.78
2018-06-05T08:14:23.750Z,85.17
2018-06-05T08:15:26.558Z,85.55
2018-06-05T08:16:27.962Z,85.36
2018-06-05T08:17:29.386Z,85.27
2018-06-05T08:18:30.776Z,85.46
2018-06-05T08:19:32.754Z,85.55
2018-06-05T08:20:34.734Z,85.84
2018-06-05T08:21:36.135Z,85.84
2018-06-05T08:22:37.535Z,85.75
2018-06-05T08:23:38.915Z,85.84
2018-06-05T08:24:40.309Z,85.84
2018-06-05T08:25:41.702Z,85.94
2018-06-05T08:26:44.786Z,86.71
2018-06-05T08:27:47.105Z,86.13
2018-06-05T08:28:48.485Z,86.71
2018-06-05T08:29:49.886Z,86.99
2018-06-05T08:30:51.279Z,86.99
2018-06-05T08:31:52.675Z,86.42
2018-06-05T08:32:54.068Z,86.42
2018-06-05T08:33:55.465Z,86.52
2018-06-05T08:34:56.850Z,86.95
2018-06-05T08:35:58.241Z,86.90
2018-06-05T08:37:00.348Z,87.48
2018-06-05T08:38:01.796Z,87.34
2018-06-05T08:39:03.129Z,87.34
2018-06-05T08:40:04.519Z,87.57
2018-06-05T08:41:05.923Z,87.43
2018-06-05T08:42:07.318Z,87.57
2018-06-05T08:43:09.470Z,87.15
2018-06-05T08:44:10.860Z,87.34
2018-06-05T08:45:12.290Z,88.10
2018-06-05T08:46:14.342Z,87.82
2018-06-05T08:47:15.725Z,88.10
2018-06-05T08:48:17.121Z,88.20
2018-06-05T08:49:19.306Z,88.30
2018-06-05T08:50:20.686Z,88.30
2018-06-05T08:51:22.085Z,88.59
2018-06-05T08:52:23.488Z,88.30
2018-06-05T08:53:25.739Z,87.92
2018-06-05T08:54:27.134Z,88.30
2018-06-05T08:55:28.524Z,88.01
2018-06-05T08:56:29.951Z,88.01
2018-06-05T08:57:31.307Z,87.53
2018-06-05T08:58:32.709Z,88.01
2018-06-05T08:59:34.103Z,88.20
2018-06-05T09:00:36.149Z,88.49
2018-06-05T09:01:37.562Z,88.68
2018-06-05T09:02:39.455Z,88.49
2018-06-05T09:03:40.852Z,88.59
2018-06-05T09:04:42.237Z,88.87
2018-06-05T09:05:43.626Z,89.07
2018-06-05T09:06:45.014Z,88.87
2018-06-05T09:07:46.405Z,88.78
2018-06-05T09:08:47.792Z,88.87
2018-06-05T09:09:49.190Z,88.92
2018-06-05T09:10:50.621Z,88.59
2018-06-05T09:11:51.974Z,88.87
2018-06-05T09:12:53.424Z,88.73
2018-06-05T09:13:54.712Z,88.53
2018-06-05T09:14:56.103Z,88.34
2018-06-05T09:15:57.496Z,88.34
2018-06-05T09:16:58.901Z,88.63
2018-06-05T09:18:00.293Z,88.87
2018-06-05T09:19:01.681Z,89.16
2018-06-05T09:20:03.071Z,89.26
2018-06-05T09:21:04.469Z,89.64
2018-06-05T09:22:05.854Z,89.26
2018-06-05T09:23:08.167Z,90.03
2018-06-05T09:24:09.561Z,90.12
2018-06-05T09:25:12.677Z,90.22
2018-06-05T09:26:14.064Z,90.70
2018-06-05T09:27:15.461Z,90.70
2018-06-05T09:28:16.851Z,91.18
2018-06-05T09:29:18.253Z,91.47
2018-06-05T09:30:19.636Z,91.47
2018-06-05T09:31:21.034Z,91.47
2018-06-05T09:32:23.304Z,91.56
2018-06-05T09:33:24.706Z,91.28
2018-06-05T09:34:26.129Z,91.47
2018-06-05T09:35:27.472Z,91.66
2018-06-05T09:36:32.062Z,91.75
2018-06-05T09:37:32.162Z,91.66
2018-06-05T09:38:33.546Z,92.62
2018-06-05T09:39:34.983Z,92.14
2018-06-05T09:40:36.332Z,92.91
2018-06-05T09:41:37.726Z,92.52
2018-06-05T09:42:39.112Z,93.49
2018-06-05T09:43:41.068Z,94.11
2018-06-05T09:44:42.507Z,94.11
2018-06-05T09:45:44.781Z,95.45
2018-06-05T09:46:46.933Z,94.59
2018-06-05T09:47:49.056Z,94.59
2018-06-05T09:48:50.455Z,94.11
2018-06-05T09:49:53.434Z,93.38
2018-06-05T09:50:54.812Z,92.57
2018-06-05T09:51:56.222Z,92.23
2018-06-05T09:52:57.603Z,92.33
2018-06-05T09:53:59.511Z,91.94
2018-06-05T09:55:01.496Z,90.73
2018-06-05T09:56:03.571Z,89.58
2018-06-05T09:57:04.248Z,88.76
2018-06-05T09:58:06.406Z,88.76
2018-06-05T09:59:08.374Z,87.36
2018-06-05T10:00:09.770Z,87.07
2018-06-05T10:01:11.165Z,85.53
2018-06-05T10:02:12.564Z,84.22
2018-06-05T10:03:13.954Z,83.55
2018-06-05T10:04:15.341Z,82.78
2018-06-05T10:05:16.742Z,82.49
2018-06-05T10:06:18.136Z,82.01
2018-06-05T10:07:19.536Z,81.76
2018-06-05T10:08:21.708Z,81.76
2018-06-05T10:09:23.100Z,80.79
2018-06-05T10:10:24.498Z,80.12
2018-06-05T10:11:25.887Z,80.02
2018-06-05T10:12:27.281Z,79.44
2018-06-05T10:13:28.694Z,79.29
2018-06-05T10:14:30.577Z,79.00
2018-06-05T10:15:32.098Z,77.98
2018-06-05T10:16:33.511Z,77.69
2018-06-05T10:17:35.581Z,76.67
2018-06-05T10:18:36.954Z,75.41
2018-06-05T10:19:39.202Z,74.83
2018-06-05T10:20:41.485Z,73.90
2018-06-05T10:21:44.561Z,74.38
2018-06-05T10:22:45.961Z,74.00
2018-06-05T10:23:47.365Z,72.94
2018-06-05T10:24:49.287Z,72.55
2018-06-05T10:25:50.692Z,71.39
2018-06-05T10:26:52.084Z,71.10
2018-06-05T10:27:53.484Z,71.30
2018-06-05T10:28:54.870Z,71.48
2018-06-05T10:29:56.276Z,71.87
2018-06-05T10:30:57.685Z,71.78
2018-06-05T10:31:59.094Z,71.48
2018-06-05T10:33:00.491Z,71.97
2018-06-05T10:34:01.900Z,71.30
2018-06-05T10:35:03.304Z,71.39
2018-06-05T10:36:06.216Z,71.39
2018-06-05T10:37:07.622Z,71.20
2018-06-05T10:38:09.774Z,71.39
2018-06-05T10:39:11.832Z,71.10
2018-06-05T10:40:13.287Z,71.30
2018-06-05T10:41:15.233Z,70.23
2018-06-05T10:42:18.596Z,70.52
2018-06-05T10:43:20.192Z,70.81
2018-06-05T10:44:21.599Z,70.81
2018-06-05T10:45:25.699Z,70.62
2018-06-05T10:46:27.090Z,70.32
2018-06-05T10:47:29.452Z,70.52
2018-06-05T10:48:31.462Z,70.04
2018-06-05T10:49:33.487Z,70.42
2018-06-05T10:50:35.528Z,70.32
2018-06-05T10:51:36.921Z,70.48
2018-06-05T10:52:38.322Z,70.97
2018-06-05T10:53:39.727Z,71.10
2018-06-05T10:54:42.962Z,70.62
2018-06-05T10:55:44.360Z,70.52
2018-06-05T10:56:47.106Z,70.90
2018-06-05T10:57:48.491Z,70.72
2018-06-05T10:58:49.897Z,70.32
2018-06-05T10:59:51.294Z,70.17
2018-06-05T11:00:53.536Z,69.40
2018-06-05T11:01:54.936Z,69.10
2018-06-05T11:02:56.334Z,68.95
2018-06-05T11:03:57.741Z,68.08
2018-06-05T11:04:59.138Z,67.49
2018-06-05T11:06:00.534Z,66.91
2018-06-05T11:07:02.659Z,65.79
2018-06-05T11:08:04.051Z,65.20
2018-06-05T11:09:06.723Z,64.24
2018-06-05T11:10:08.115Z,65.40
2018-06-05T11:11:09.528Z,65.59
2018-06-05T11:12:10.931Z,65.69
2018-06-05T11:13:12.329Z,65.59
2018-06-05T11:14:14.333Z,65.50
2018-06-05T11:15:15.731Z,65.59
2018-06-05T11:16:17.123Z,65.30
2018-06-05T11:17:19.201Z,65.98
2018-06-05T11:18:20.657Z,65.79
2018-06-05T11:19:22.011Z,66.47
2018-06-05T11:20:23.401Z,65.79
2018-06-05T11:21:25.706Z,65.62
2018-06-05T11:22:27.113Z,64.89
2018-06-05T11:23:28.504Z,64.69
2018-06-05T11:24:30.791Z,63.53
2018-06-05T11:25:32.194Z,63.75
2018-06-05T11:26:33.587Z,61.91
2018-06-05T11:27:34.986Z,62.30
2018-06-05T11:28:36.373Z,62.52
2018-06-05T11:29:37.772Z,61.85
2018-06-05T11:30:39.176Z,61.07
2018-06-05T11:31:41.456Z,61.19
2018-06-05T11:32:42.854Z,59.48
2018-06-05T11:33:44.248Z,58.73
2018-06-05T11:34:45.660Z,58.37
2018-06-05T11:35:47.058Z,56.43
2018-06-05T11:36:48.466Z,55.19
2018-06-05T11:37:49.859Z,54.57
2018-06-05T11:38:51.261Z,53.33
2018-06-05T11:39:52.658Z,51.80
2018-06-05T11:40:54.050Z,50.65
2018-06-05T11:41:55.453Z,49.71
2018-06-05T11:42:58.544Z,49.34
2018-06-05T11:44:00.753Z,48.78
2018-06-05T11:45:02.163Z,48.27
2018-06-05T11:46:03.575Z,48.10
2018-06-05T11:47:04.972Z,47.61
2018-06-05T11:48:06.382Z,47.61
2018-06-05T11:49:07.798Z,47.31
2018-06-05T11:50:09.192Z,47.31
2018-06-05T11:51:10.604Z,48.27
2018-06-05T11:52:11.993Z,49.58
2018-06-05T11:53:14.124Z,51.02
2018-06-05T11:54:17.151Z,51.12
2018-06-05T11:55:17.652Z,50.92
2018-06-05T11:56:19.058Z,49.76
2018-06-05T11:57:20.450Z,49.85
2018-06-05T11:58:22.832Z,50.04
2018-06-05T11:59:24.210Z,49.85
2018-06-05T12:00:25.630Z,49.71
2018-06-05T12:01:27.037Z,49.15
2018-06-05T12:02:28.431Z,47.24
2018-06-05T12:03:29.839Z,45.41
2018-06-05T12:04:31.253Z,44.74
2018-06-05T12:05:32.655Z,44.01
2018-06-05T12:06:34.057Z,42.27
2018-06-05T12:07:35.471Z,41.00
2018-06-05T12:08:36.873Z,41.58
2018-06-05T12:09:39.688Z,42.42
2018-06-05T12:10:44.147Z,43.26
2018-06-05T12:11:44.637Z,44.82
2018-06-05T12:12:46.748Z,44.82
2018-06-05T12:13:49.124Z,44.78
2018-06-05T12:14:52.015Z,47.07
2018-06-05T12:15:54.146Z,47.92
2018-06-05T12:16:54.777Z,48.02
2018-06-05T12:17:56.169Z,48.51
2018-06-05T12:18:57.569Z,48.97
2018-06-05T12:19:58.958Z,50.70
2018-06-05T12:21:00.361Z,51.65
2018-06-05T12:22:01.768Z,52.82
2018-06-05T12:23:03.166Z,53.64
2018-06-05T12:24:04.567Z,55.10
2018-06-05T12:25:05.978Z,55.94
2018-06-05T12:26:07.406Z,56.30
2018-06-05T12:27:09.532Z,57.34
2018-06-05T12:28:10.933Z,57.93
2018-06-05T12:29:12.335Z,57.57
2018-06-05T12:30:13.746Z,55.88
2018-06-05T12:31:15.149Z,54.66
2018-06-05T12:32:16.552Z,53.06
2018-06-05T12:33:17.948Z,50.85
2018-06-05T12:34:19.909Z,50.48
2018-06-05T12:35:21.318Z,50.48
2018-06-05T12:36:22.718Z,50.85
2018-06-05T12:37:24.108Z,51.99
2018-06-05T12:38:25.507Z,53.01
2018-06-05T12:39:28.271Z,53.62
2018-06-05T12:40:29.796Z,51.31
2018-06-05T12:41:31.855Z,50.14
2018-06-05T12:42:33.267Z,48.80
2018-06-05T12:43:34.680Z,47.75
2018-06-05T12:44:36.083Z,47.75
2018-06-05T12:45:37.482Z,48.05
2018-06-05T12:46:38.887Z,47.73
2018-06-05T12:47:41.175Z,46.66
2018-06-05T12:48:42.570Z,47.78
2018-06-05T12:49:44.841Z,49.02
2018-06-05T12:50:47.083Z,49.78
2018-06-05T12:51:48.481Z,50.34
2018-06-05T12:52:49.890Z,51.75
2018-06-05T12:53:51.298Z,52.59
2018-06-05T12:54:53.272Z,54.11
2018-06-05T12:55:54.676Z,53.53
2018-06-05T12:56:56.075Z,53.61
2018-06-05T12:57:57.503Z,54.38
2018-06-05T12:58:58.878Z,54.28
2018-06-05T13:00:00.284Z,54.58
2018-06-05T13:01:01.690Z,53.02
2018-06-05T13:02:03.088Z,52.51
2018-06-05T13:03:04.478Z,53.39
2018-06-05T13:04:05.889Z,52.61
2018-06-05T13:05:07.283Z,52.22
2018-06-05T13:06:08.680Z,52.39
2018-06-05T13:07:10.996Z,52.39
2018-06-05T13:08:12.398Z,52.20
2018-06-05T13:09:15.401Z,52.20
2018-06-05T13:10:16.795Z,52.49
2018-06-05T13:11:18.189Z,51.23
2018-06-05T13:12:19.579Z,51.13
2018-06-05T13:13:20.987Z,51.81
2018-06-05T13:14:23.162Z,52.49
2018-06-05T13:15:25.320Z,53.17
2018-06-05T13:16:26.713Z,52.46
2018-06-05T13:17:28.167Z,51.47
2018-06-05T13:18:29.535Z,52.14
2018-06-05T13:19:32.338Z,52.24
2018-06-05T13:20:34.307Z,53.41
2018-06-05T13:21:35.709Z,54.57
2018-06-05T13:22:37.128Z,54.37
2018-06-05T13:23:39.879Z,53.50
2018-06-05T13:24:41.281Z,53.79
2018-06-05T13:25:42.690Z,54.27
2018-06-05T13:26:44.638Z,54.08
2018-06-05T13:27:46.044Z,53.41
2018-06-05T13:28:47.926Z,53.79
2018-06-05T13:29:49.349Z,53.14
2018-06-05T13:30:50.741Z,53.41
2018-06-05T13:31:52.129Z,53.41
2018-06-05T13:32:53.535Z,53.72
2018-06-05T13:33:54.936Z,52.56
2018-06-05T13:34:56.349Z,52.14
2018-06-05T13:35:57.733Z,51.18
2018-06-05T13:36:59.132Z,51.47
2018-06-05T13:38:00.529Z,52.44
2018-06-05T13:39:02.373Z,53.11
2018-06-05T13:40:04.339Z,53.11
2018-06-05T13:41:05.746Z,53.69
2018-06-05T13:42:07.148Z,54.66
2018-06-05T13:43:08.542Z,54.95
2018-06-05T13:44:09.936Z,55.73
2018-06-05T13:45:11.378Z,55.82
2018-06-05T13:46:12.784Z,56.50
2018-06-05T13:47:14.181Z,56.21
2018-06-05T13:48:15.583Z,55.92
2018-06-05T13:49:16.972Z,56.02
2018-06-05T13:50:18.380Z,56.70
2018-06-05T13:51:19.778Z,56.70
2018-06-05T13:52:21.225Z,57.37
2018-06-05T13:53:22.580Z,57.37
2018-06-05T13:54:23.972Z,57.56
2018-06-05T13:55:25.376Z,58.34
2018-06-05T13:56:26.774Z,57.66
2018-06-05T13:57:28.854Z,57.95
2018-06-05T13:58:30.247Z,57.86
2018-06-05T13:59:31.642Z,57.37
2018-06-05T14:00:33.040Z,56.24
2018-06-05T14:01:35.813Z,55.76
2018-06-05T14:02:37.213Z,54.79
2018-06-05T14:03:38.627Z,52.85
2018-06-05T14:04:40.000Z,52.14
2018-06-05T14:05:41.399Z,49.54
2018-06-05T14:06:42.787Z,50.50
2018-06-05T14:07:44.190Z,51.08
2018-06-05T14:08:46.104Z,52.44
2018-06-05T14:09:48.450Z,54.17
2018-06-05T14:10:50.761Z,54.57
2018-06-05T14:11:52.973Z,53.99
2018-06-05T14:12:54.356Z,53.69
2018-06-05T14:13:55.760Z,53.02
2018-06-05T14:14:57.160Z,53.19
2018-06-05T14:15:58.550Z,53.47
2018-06-05T14:16:59.938Z,53.47
2018-06-05T14:18:02.042Z,52.12
2018-06-05T14:19:04.354Z,52.02
2018-06-05T14:20:05.764Z,51.44
2018-06-05T14:21:07.166Z,52.12
2018-06-05T14:22:08.556Z,51.06
2018-06-05T14:23:09.962Z,51.44
2018-06-05T14:24:11.359Z,51.06
2018-06-05T14:25:12.751Z,50.70
2018-06-05T14:26:15.079Z,51.18
2018-06-05T14:27:16.483Z,50.60
2018-06-05T14:28:17.878Z,51.28
2018-06-05T14:29:20.065Z,50.79
2018-06-05T14:30:22.711Z,50.38
2018-06-05T14:31:23.351Z,50.96
2018-06-05T14:32:24.744Z,48.35
2018-06-05T14:33:26.145Z,49.70
2018-06-05T14:34:27.546Z,53.28
2018-06-05T14:35:28.949Z,49.32
2018-06-05T14:36:30.346Z,49.12
2018-06-05T14:37:31.738Z,49.68
2018-06-05T14:38:33.128Z,50.93
2018-06-05T14:39:34.540Z,47.94
2018-06-05T14:40:35.955Z,49.58
2018-06-05T14:41:37.352Z,46.68
2018-06-05T14:42:38.734Z,46.78
2018-06-05T14:43:40.743Z,46.88
2018-06-05T14:44:42.158Z,47.26
2018-06-05T14:45:43.552Z,46.78
2018-06-05T14:46:44.949Z,46.78
2018-06-05T14:47:46.340Z,44.46
2018-06-05T14:48:47.738Z,43.78
2018-06-05T14:49:49.135Z,45.14
2018-06-05T14:50:51.753Z,43.20
2018-06-05T14:51:53.153Z,43.30
2018-06-05T14:52:56.275Z,42.33
2018-06-05T14:53:57.670Z,42.91
2018-06-05T14:54:59.787Z,43.10
2018-06-05T14:56:02.083Z,42.04
2018-06-05T14:57:04.379Z,42.24
2018-06-05T14:58:05.779Z,40.67
2018-06-05T14:59:07.181Z,40.67
2018-06-05T15:00:08.584Z,36.90
2018-06-05T15:01:09.965Z,37.77
2018-06-05T15:02:11.365Z,38.64
2018-06-05T15:03:12.760Z,39.51
2018-06-05T15:04:14.163Z,39.32
2018-06-05T15:05:15.566Z,40.77
2018-06-05T15:06:16.959Z,40.09
2018-06-05T15:07:18.359Z,38.64
2018-06-05T15:08:19.753Z,39.41
2018-06-05T15:09:21.156Z,40.57
2018-06-05T15:10:22.545Z,38.54
2018-06-05T15:11:23.942Z,38.74
2018-06-05T15:12:25.340Z,39.03
2018-06-05T15:13:26.736Z,37.58
2018-06-05T15:14:28.123Z,37.48
2018-06-05T15:15:29.525Z,37.48
2018-06-05T15:16:30.926Z,37.58
2018-06-05T15:17:32.312Z,36.90
2018-06-05T15:18:34.403Z,36.52
2018-06-05T15:19:36.560Z,35.55
2018-06-05T15:20:37.954Z,33.14
2018-06-05T15:21:39.365Z,31.01
2018-06-05T15:22:40.757Z,33.04
2018-06-05T15:23:42.150Z,33.52
2018-06-05T15:24:43.546Z,32.46
2018-06-05T15:25:44.941Z,31.68
2018-06-05T15:26:46.337Z,31.30
2018-06-05T15:27:47.732Z,31.78
2018-06-05T15:28:49.131Z,31.10
2018-06-05T15:29:50.527Z,31.20
2018-06-05T15:30:54.736Z,31.98
2018-06-05T15:31:56.242Z,33.23
2018-06-05T15:32:56.761Z,33.12
2018-06-05T15:33:58.198Z,34.20
2018-06-05T15:34:59.570Z,34.87
2018-06-05T15:36:00.967Z,35.45
2018-06-05T15:37:02.360Z,36.11
2018-06-05T15:38:03.782Z,37.56
2018-06-05T15:39:06.812Z,38.43
2018-06-05T15:40:08.196Z,38.81
2018-06-05T15:41:09.595Z,39.59
2018-06-05T15:42:11.751Z,40.45
2018-06-05T15:43:13.163Z,40.65
2018-06-05T15:44:15.306Z,40.65
2018-06-05T15:45:16.679Z,40.94
2018-06-05T15:46:18.080Z,40.55
2018-06-05T15:47:19.476Z,40.26
2018-06-05T15:48:20.864Z,40.07
2018-06-05T15:49:22.260Z,40.55
2018-06-05T15:50:23.663Z,40.26
2018-06-05T15:51:25.047Z,40.55
2018-06-05T15:52:26.450Z,40.55
2018-06-05T15:53:27.840Z,40.75
2018-06-05T15:54:29.239Z,40.17
2018-06-05T15:55:30.633Z,41.23
2018-06-05T15:56:32.034Z,41.52
2018-06-05T15:57:33.435Z,42.39
2018-06-05T15:58:34.838Z,41.33
2018-06-05T15:59:36.237Z,40.55
2018-06-05T16:00:37.649Z,41.23
2018-06-05T16:01:39.754Z,41.71
2018-06-05T16:02:40.392Z,41.69
2018-06-05T16:03:41.796Z,42.46
2018-06-05T16:04:44.712Z,42.46
2018-06-05T16:05:46.081Z,42.94
2018-06-05T16:06:47.478Z,42.75
2018-06-05T16:07:48.876Z,42.08
2018-06-05T16:08:51.203Z,40.82
2018-06-05T16:09:52.582Z,40.63
2018-06-05T16:10:53.966Z,41.02
2018-06-05T16:11:55.944Z,40.92
2018-06-05T16:12:57.339Z,41.30
2018-06-05T16:13:58.730Z,40.70
2018-06-05T16:15:00.873Z,39.36
2018-06-05T16:16:02.239Z,37.52
2018-06-05T16:17:04.173Z,38.68
2018-06-05T16:18:05.566Z,40.61
2018-06-05T16:19:06.958Z,40.99
2018-06-05T16:20:08.351Z,42.25
2018-06-05T16:21:09.743Z,41.38
2018-06-05T16:22:12.017Z,41.67
2018-06-05T16:23:13.409Z,42.35
2018-06-05T16:24:14.805Z,43.31
2018-06-05T16:25:16.210Z,44.08
2018-06-05T16:26:17.611Z,45.14
2018-06-05T16:27:19.000Z,45.34
2018-06-05T16:28:20.392Z,45.72
2018-06-05T16:29:21.787Z,46.30
2018-06-05T16:30:23.194Z,44.08
2018-06-05T16:31:24.579Z,43.79
2018-06-05T16:32:25.973Z,42.83
2018-06-05T16:33:27.440Z,42.80
2018-06-05T16:34:28.788Z,44.08
2018-06-05T16:35:30.180Z,45.14
2018-06-05T16:36:32.184Z,45.04
2018-06-05T16:37:33.583Z,45.41
2018-06-05T16:38:34.975Z,44.27
2018-06-05T16:39:36.372Z,44.25
2018-06-05T16:40:37.770Z,45.12
2018-06-05T16:41:39.653Z,45.60
2018-06-05T16:42:41.045Z,45.89
2018-06-05T16:43:43.463Z,46.28
2018-06-05T16:44:44.846Z,46.95
2018-06-05T16:45:46.260Z,46.95
2018-06-05T16:46:48.333Z,47.24
2018-06-05T16:47:49.724Z,47.31
2018-06-05T16:48:51.503Z,48.30
2018-06-05T16:49:52.895Z,48.88
2018-06-05T16:50:54.292Z,49.46
2018-06-05T16:51:56.389Z,48.69
2018-06-05T16:52:57.812Z,47.89
2018-06-05T16:53:59.147Z,48.86
2018-06-05T16:55:00.556Z,48.76
2018-06-05T16:56:05.443Z,48.47
2018-06-05T16:57:06.837Z,47.60
2018-06-05T16:58:08.228Z,46.83
2018-06-05T16:59:09.584Z,46.64
2018-06-05T17:00:11.440Z,46.73
2018-06-05T17:01:12.830Z,46.35
2018-06-05T17:02:14.222Z,46.45
2018-06-05T17:03:16.239Z,46.25
2018-06-05T17:04:17.637Z,45.68
2018-06-05T17:05:20.406Z,44.52
2018-06-05T17:06:21.824Z,44.23
2018-06-05T17:07:23.924Z,44.89
2018-06-05T17:08:25.318Z,45.10
2018-06-05T17:09:26.714Z,44.40
2018-06-05T17:10:28.742Z,44.69
2018-06-05T17:11:30.626Z,44.89
2018-06-05T17:12:32.024Z,44.89
2018-06-05T17:13:34.352Z,44.69
2018-06-05T17:14:35.709Z,43.63
2018-06-05T17:15:37.099Z,43.73
2018-06-05T17:16:40.367Z,43.92
2018-06-05T17:17:41.745Z,43.92
2018-06-05T17:18:44.005Z,44.89
2018-06-05T17:19:45.395Z,44.98
2018-06-05T17:20:46.797Z,42.47
2018-06-05T17:21:49.160Z,41.61
2018-06-05T17:22:51.134Z,41.41
2018-06-05T17:23:52.535Z,41.30
2018-06-05T17:24:53.927Z,41.39
2018-06-05T17:25:55.315Z,40.91
2018-06-05T17:26:56.712Z,41.11
2018-06-05T17:27:58.106Z,41.68
2018-06-05T17:28:59.502Z,41.97
2018-06-05T17:30:00.854Z,41.97
2018-06-05T17:31:02.244Z,42.36
2018-06-05T17:32:03.645Z,42.26
2018-06-05T17:33:05.040Z,41.68
2018-06-05T17:34:06.438Z,41.97
2018-06-05T17:35:08.685Z,41.88
2018-06-05T17:36:10.041Z,41.78
2018-06-05T17:37:12.107Z,41.95
2018-06-05T17:38:13.513Z,41.66
2018-06-05T17:39:14.896Z,41.88
2018-06-05T17:40:16.305Z,42.33
2018-06-05T17:41:17.694Z,42.72
2018-06-05T17:42:19.045Z,42.91
2018-06-05T17:43:21.415Z,42.72
2018-06-05T17:44:22.806Z,43.03
2018-06-05T17:45:24.934Z,43.40
2018-06-05T17:46:27.042Z,43.97
2018-06-05T17:47:28.443Z,44.07
2018-06-05T17:48:29.832Z,44.93
2018-06-05T17:49:32.039Z,45.13
2018-06-05T17:50:34.829Z,45.13
2018-06-05T17:51:36.816Z,45.61
2018-06-05T17:52:37.582Z,45.32
2018-06-05T17:53:40.405Z,45.61
2018-06-05T17:54:42.498Z,45.70
2018-06-05T17:55:43.848Z,45.61
2018-06-05T17:56:45.199Z,45.80
2018-06-05T17:57:46.646Z,46.19
2018-06-05T17:58:47.944Z,46.38
2018-06-05T17:59:49.294Z,46.77
2018-06-05T18:00:51.617Z,46.86
2018-06-05T18:01:52.963Z,47.05
2018-06-05T18:02:54.320Z,47.82
2018-06-05T18:03:55.684Z,48.02
2018-06-05T18:04:57.069Z,48.59
2018-06-05T18:05:59.410Z,49.33
2018-06-05T18:07:01.379Z,49.53
2018-06-05T18:08:02.777Z,49.63
2018-06-05T18:09:04.186Z,50.40
2018-06-05T18:10:05.580Z,50.40
2018-06-05T18:11:07.723Z,50.68
2018-06-05T18:12:09.112Z,50.68
2018-06-05T18:13:10.518Z,50.87
2018-06-05T18:14:13.451Z,51.35
2018-06-05T18:15:14.858Z,51.45
2018-06-05T18:16:16.270Z,51.35
2018-06-05T18:17:19.024Z,51.64
2018-06-05T18:18:20.466Z,51.84
2018-06-05T18:19:21.769Z,51.74
2018-06-05T18:20:23.158Z,52.12
2018-06-05T18:21:25.483Z,52.03
2018-06-05T18:22:26.880Z,52.51
2018-06-05T18:23:28.273Z,52.61
2018-06-05T18:24:31.908Z,52.89
2018-06-05T18:25:33.311Z,52.89
2018-06-05T18:26:34.742Z,53.38
2018-06-05T18:27:36.099Z,53.28
2018-06-05T18:28:37.500Z,53.16
2018-06-05T18:29:39.446Z,52.87
2018-06-05T18:30:40.836Z,53.35
2018-06-05T18:31:42.229Z,53.06
2018-06-05T18:32:44.480Z,53.74
2018-06-05T18:33:45.875Z,53.92
2018-06-05T18:34:47.290Z,54.50
2018-06-05T18:35:50.040Z,53.92
2018-06-05T18:36:51.443Z,54.02
2018-06-05T18:37:52.842Z,54.50
2018-06-05T18:38:54.237Z,54.50
2018-06-05T18:39:55.636Z,55.46
2018-06-05T18:40:57.752Z,55.85
2018-06-05T18:41:59.133Z,55.76
2018-06-05T18:43:01.818Z,55.85
2018-06-05T18:44:03.203Z,56.33
2018-06-05T18:45:06.892Z,56.52
2018-06-05T18:46:08.290Z,56.71
2018-06-05T18:47:10.571Z,56.81
2018-06-05T18:48:11.965Z,57.00
2018-06-05T18:49:13.366Z,56.81
2018-06-05T18:50:14.755Z,57.00
2018-06-05T18:51:16.154Z,56.68
2018-06-05T18:52:17.540Z,57.45
2018-06-05T18:53:18.942Z,57.17
2018-06-05T18:54:21.060Z,57.26
2018-06-05T18:55:22.447Z,57.55
2018-06-05T18:56:23.841Z,57.36
2018-06-05T18:57:26.057Z,56.88
2018-06-05T18:58:28.027Z,56.78
2018-06-05T18:59:29.423Z,56.59
2018-06-05T19:00:30.818Z,56.49
2018-06-05T19:01:32.255Z,56.40
2018-06-05T19:02:34.054Z,56.59
2018-06-05T19:03:35.450Z,56.49
2018-06-05T19:04:36.841Z,56.68
2018-06-05T19:05:38.238Z,56.59
2018-06-05T19:06:39.626Z,56.66
2018-06-05T19:07:41.016Z,56.56
2018-06-05T19:08:43.981Z,57.04
2018-06-05T19:09:45.378Z,56.56
2018-06-05T19:10:47.652Z,57.14
2018-06-05T19:11:49.950Z,56.85
2018-06-05T19:12:51.336Z,57.62
2018-06-05T19:13:52.714Z,57.33
2018-06-05T19:14:54.115Z,57.33
2018-06-05T19:15:55.502Z,57.90
2018-06-05T19:16:56.902Z,57.04
2018-06-05T19:17:58.301Z,57.14
2018-06-05T19:19:00.434Z,57.40
2018-06-05T19:20:03.643Z,57.43
2018-06-05T19:21:05.968Z,57.97
2018-06-05T19:22:07.341Z,57.68
2018-06-05T19:23:09.242Z,57.81
2018-06-05T19:24:10.634Z,57.97
2018-06-05T19:25:12.972Z,57.88
2018-06-05T19:26:14.350Z,58.07
2018-06-05T19:27:15.748Z,57.78
2018-06-05T19:28:19.768Z,58.17
2018-06-05T19:29:21.166Z,58.07
2018-06-05T19:30:23.337Z,57.88
2018-06-05T19:31:24.534Z,58.17
2018-06-05T19:32:25.925Z,58.26
2018-06-05T19:33:27.334Z,57.78
2018-06-05T19:34:29.703Z,58.17
2018-06-05T19:35:32.950Z,58.07
2018-06-05T19:36:35.871Z,58.07
2018-06-05T19:37:37.267Z,58.84
2018-06-05T19:38:39.346Z,58.91
2018-06-05T19:39:40.883Z,58.64
2018-06-05T19:40:42.681Z,58.64
2018-06-05T19:41:45.109Z,58.81
2018-06-05T19:42:47.379Z,59.09
2018-06-05T19:43:50.187Z,58.81
2018-06-05T19:44:51.628Z,59.09
2018-06-05T19:45:53.766Z,58.91
2018-06-05T19:46:56.331Z,59.38
2018-06-05T19:47:57.727Z,58.91
2018-06-05T19:49:01.893Z,59.09
2018-06-05T19:50:03.279Z,59.48